< < Back
Terminal Aerodrome Forecast


Current Version              Previous Versions:   1  2  3  4  5  6  7  8  9  

Terminal Aerodrome Forecast

178
FTUS42 KFFC 210900 AAA
TAFMCN
TAF AMD
KMCN 210940Z 2110/2206 31003KT P6SM SCT150
     FM211100 31003KT 4SM BR SCT008
     FM211400 31004KT P6SM SCT025
     FM211700 30006KT P6SM SCT045
     FM220200 30002KT P6SM SKC=

Latest METAR

738
SAUS80 KWBC 212300 RRC
MTRMCN
METAR KMCN 212253Z 29007KT 10SM CLR 33/21 A3006 RMK AO2 SLP173
T03280211


USA.gov is the U.S. government's official web portal to all federal, state and local government web resources and services.